sensor_id;sensor_type;location;lat;lon;timestamp;pressure;altitude;pressure_sealevel;temperature
21336;BMP180;69435;52.670;13.544;2023-12-07T00:00:42;100957.00;;;6.00
21336;BMP180;69435;52.670;13.544;2023-12-07T00:03:29;100972.00;;;6.00
21336;BMP180;69435;52.670;13.544;2023-12-07T00:06:15;100928.00;;;6.00
21336;BMP180;69435;52.670;13.544;2023-12-07T00:09:02;100933.00;;;6.00
21336;BMP180;69435;52.670;13.544;2023-12-07T00:11:48;100927.00;;;6.00
21336;BMP180;69435;52.670;13.544;2023-12-07T00:14:34;100967.00;;;5.80
21336;BMP180;69435;52.670;13.544;2023-12-07T00:17:20;100949.00;;;5.90
21336;BMP180;69435;52.670;13.544;2023-12-07T00:20:06;100991.00;;;5.90
21336;BMP180;69435;52.670;13.544;2023-12-07T00:22:53;100972.00;;;6.00
21336;BMP180;69435;52.670;13.544;2023-12-07T00:25:39;100984.00;;;5.90
21336;BMP180;69435;52.670;13.544;2023-12-07T00:28:25;100972.00;;;5.90
21336;BMP180;69435;52.670;13.544;2023-12-07T00:31:12;100998.00;;;5.90
21336;BMP180;69435;52.670;13.544;2023-12-07T00:33:58;100971.00;;;5.90
21336;BMP180;69435;52.670;13.544;2023-12-07T00:36:44;100976.00;;;5.60
21336;BMP180;69435;52.670;13.544;2023-12-07T00:39:30;100960.00;;;5.60
21336;BMP180;69435;52.670;13.544;2023-12-07T00:42:17;100943.00;;;5.90
21336;BMP180;69435;52.670;13.544;2023-12-07T00:45:03;100971.00;;;5.90
21336;BMP180;69435;52.670;13.544;2023-12-07T00:47:50;100945.00;;;5.90
21336;BMP180;69435;52.670;13.544;2023-12-07T00:50:36;100996.00;;;5.90
21336;BMP180;69435;52.670;13.544;2023-12-07T00:53:22;100912.00;;;5.90
21336;BMP180;69435;52.670;13.544;2023-12-07T00:56:08;100979.00;;;5.90
21336;BMP180;69435;52.670;13.544;2023-12-07T00:58:54;100955.00;;;5.90
21336;BMP180;69435;52.670;13.544;2023-12-07T01:01:40;101000.00;;;5.80
21336;BMP180;69435;52.670;13.544;2023-12-07T01:04:28;100994.00;;;5.90
21336;BMP180;69435;52.670;13.544;2023-12-07T01:07:14;101019.00;;;5.90
21336;BMP180;69435;52.670;13.544;2023-12-07T01:10:00;100983.00;;;5.90
21336;BMP180;69435;52.670;13.544;2023-12-07T01:12:46;100960.00;;;5.90
21336;BMP180;69435;52.670;13.544;2023-12-07T01:15:32;101013.00;;;5.90
21336;BMP180;69435;52.670;13.544;2023-12-07T01:18:18;100984.00;;;5.90
21336;BMP180;69435;52.670;13.544;2023-12-07T01:21:04;100988.00;;;6.00
21336;BMP180;69435;52.670;13.544;2023-12-07T01:23:51;101022.00;;;6.00
21336;BMP180;69435;52.670;13.544;2023-12-07T01:26:37;100970.00;;;6.00
21336;BMP180;69435;52.670;13.544;2023-12-07T01:29:23;100974.00;;;6.00
21336;BMP180;69435;52.670;13.544;2023-12-07T01:32:09;101005.00;;;6.00
21336;BMP180;69435;52.670;13.544;2023-12-07T01:34:56;101031.00;;;6.00
21336;BMP180;69435;52.670;13.544;2023-12-07T01:37:42;100990.00;;;6.10
21336;BMP180;69435;52.670;13.544;2023-12-07T01:40:28;100996.00;;;6.10
21336;BMP180;69435;52.670;13.544;2023-12-07T01:43:14;101007.00;;;6.10
21336;BMP180;69435;52.670;13.544;2023-12-07T01:46:00;100997.00;;;6.10
21336;BMP180;69435;52.670;13.544;2023-12-07T01:48:49;100989.00;;;6.10
21336;BMP180;69435;52.670;13.544;2023-12-07T01:51:37;101050.00;;;6.10
21336;BMP180;69435;52.670;13.544;2023-12-07T01:54:23;101004.00;;;6.10
21336;BMP180;69435;52.670;13.544;2023-12-07T01:57:09;101022.00;;;6.00
21336;BMP180;69435;52.670;13.544;2023-12-07T01:59:55;101011.00;;;6.10
21336;BMP180;69435;52.670;13.544;2023-12-07T02:02:44;101022.00;;;6.10
21336;BMP180;69435;52.670;13.544;2023-12-07T02:05:32;101047.00;;;6.20
21336;BMP180;69435;52.670;13.544;2023-12-07T02:08:18;101011.00;;;6.20
21336;BMP180;69435;52.670;13.544;2023-12-07T02:11:05;101016.00;;;6.10
21336;BMP180;69435;52.670;13.544;2023-12-07T02:13:52;101039.00;;;6.20
21336;BMP180;69435;52.670;13.544;2023-12-07T02:17:21;101055.00;;;6.20
21336;BMP180;69435;52.670;13.544;2023-12-07T02:23:23;101078.00;;;6.20
21336;BMP180;69435;52.670;13.544;2023-12-07T02:26:53;101072.00;;;6.20
21336;BMP180;69435;52.670;13.544;2023-12-07T02:29:39;101073.00;;;6.10
21336;BMP180;69435;52.670;13.544;2023-12-07T02:32:25;101017.00;;;6.10
21336;BMP180;69435;52.670;13.544;2023-12-07T02:35:13;101016.00;;;6.10
21336;BMP180;69435;52.670;13.544;2023-12-07T02:38:00;100992.00;;;6.10
21336;BMP180;69435;52.670;13.544;2023-12-07T02:40:49;101015.00;;;6.10
21336;BMP180;69435;52.670;13.544;2023-12-07T02:43:35;101028.00;;;6.20
21336;BMP180;69435;52.670;13.544;2023-12-07T02:46:21;101024.00;;;6.10
21336;BMP180;69435;52.670;13.544;2023-12-07T02:49:07;101078.00;;;6.20
21336;BMP180;69435;52.670;13.544;2023-12-07T02:51:53;101015.00;;;6.10
21336;BMP180;69435;52.670;13.544;2023-12-07T02:54:39;101063.00;;;6.20
21336;BMP180;69435;52.670;13.544;2023-12-07T02:57:26;101073.00;;;6.20
21336;BMP180;69435;52.670;13.544;2023-12-07T03:00:12;101103.00;;;6.20
21336;BMP180;69435;52.670;13.544;2023-12-07T03:03:00;101041.00;;;6.20
21336;BMP180;69435;52.670;13.544;2023-12-07T03:05:46;101110.00;;;6.20
21336;BMP180;69435;52.670;13.544;2023-12-07T03:08:32;101089.00;;;6.20
21336;BMP180;69435;52.670;13.544;2023-12-07T03:11:18;101111.00;;;6.20
21336;BMP180;69435;52.670;13.544;2023-12-07T03:14:04;101103.00;;;6.00
21336;BMP180;69435;52.670;13.544;2023-12-07T03:16:50;101112.00;;;6.20
21336;BMP180;69435;52.670;13.544;2023-12-07T03:19:40;101126.00;;;6.20
21336;BMP180;69435;52.670;13.544;2023-12-07T03:22:26;101105.00;;;6.20
21336;BMP180;69435;52.670;13.544;2023-12-07T03:25:12;101116.00;;;6.20
21336;BMP180;69435;52.670;13.544;2023-12-07T03:27:58;101083.00;;;6.20
21336;BMP180;69435;52.670;13.544;2023-12-07T03:30:46;101105.00;;;6.20
21336;BMP180;69435;52.670;13.544;2023-12-07T03:33:32;101056.00;;;6.10
21336;BMP180;69435;52.670;13.544;2023-12-07T03:36:18;101116.00;;;6.20
21336;BMP180;69435;52.670;13.544;2023-12-07T03:39:04;101065.00;;;6.20
21336;BMP180;69435;52.670;13.544;2023-12-07T03:41:50;101102.00;;;6.20
21336;BMP180;69435;52.670;13.544;2023-12-07T03:44:36;101118.00;;;6.20
21336;BMP180;69435;52.670;13.544;2023-12-07T03:47:22;101063.00;;;6.20
21336;BMP180;69435;52.670;13.544;2023-12-07T03:50:09;101068.00;;;6.20
21336;BMP180;69435;52.670;13.544;2023-12-07T03:52:55;101146.00;;;6.20
21336;BMP180;69435;52.670;13.544;2023-12-07T03:55:41;101125.00;;;6.20
21336;BMP180;69435;52.670;13.544;2023-12-07T03:58:28;101089.00;;;6.20
21336;BMP180;69435;52.670;13.544;2023-12-07T04:01:14;101092.00;;;6.20
21336;BMP180;69435;52.670;13.544;2023-12-07T04:04:00;101091.00;;;6.10
21336;BMP180;69435;52.670;13.544;2023-12-07T04:06:46;101085.00;;;6.10
21336;BMP180;69435;52.670;13.544;2023-12-07T04:09:32;101123.00;;;6.10
21336;BMP180;69435;52.670;13.544;2023-12-07T04:12:18;101068.00;;;6.10
21336;BMP180;69435;52.670;13.544;2023-12-07T04:15:06;101070.00;;;6.10
21336;BMP180;69435;52.670;13.544;2023-12-07T04:17:52;101042.00;;;6.10
21336;BMP180;69435;52.670;13.544;2023-12-07T04:20:38;101133.00;;;6.00
21336;BMP180;69435;52.670;13.544;2023-12-07T04:23:25;101131.00;;;6.00
21336;BMP180;69435;52.670;13.544;2023-12-07T04:26:11;101077.00;;;6.00
21336;BMP180;69435;52.670;13.544;2023-12-07T04:28:57;101144.00;;;6.00
21336;BMP180;69435;52.670;13.544;2023-12-07T04:31:43;101069.00;;;6.00
21336;BMP180;69435;52.670;13.544;2023-12-07T04:34:30;101116.00;;;5.80
21336;BMP180;69435;52.670;13.544;2023-12-07T04:37:16;101099.00;;;6.00
21336;BMP180;69435;52.670;13.544;2023-12-07T04:40:03;101134.00;;;6.00
21336;BMP180;69435;52.670;13.544;2023-12-07T04:42:51;101142.00;;;6.00
21336;BMP180;69435;52.670;13.544;2023-12-07T04:45:37;101110.00;;;6.10
21336;BMP180;69435;52.670;13.544;2023-12-07T04:48:24;101163.00;;;6.10
21336;BMP180;69435;52.670;13.544;2023-12-07T04:51:12;101165.00;;;6.00
21336;BMP180;69435;52.670;13.544;2023-12-07T04:53:58;101155.00;;;6.10
21336;BMP180;69435;52.670;13.544;2023-12-07T04:56:45;101102.00;;;6.00
21336;BMP180;69435;52.670;13.544;2023-12-07T04:59:32;101107.00;;;6.00
21336;BMP180;69435;52.670;13.544;2023-12-07T05:02:18;101107.00;;;6.10
21336;BMP180;69435;52.670;13.544;2023-12-07T05:05:05;101122.00;;;6.10
21336;BMP180;69435;52.670;13.544;2023-12-07T05:07:51;101116.00;;;6.10
21336;BMP180;69435;52.670;13.544;2023-12-07T05:10:37;101187.00;;;6.10
21336;BMP180;69435;52.670;13.544;2023-12-07T05:13:24;101139.00;;;6.10
21336;BMP180;69435;52.670;13.544;2023-12-07T05:16:10;101159.00;;;6.10
21336;BMP180;69435;52.670;13.544;2023-12-07T05:18:56;101111.00;;;6.10
21336;BMP180;69435;52.670;13.544;2023-12-07T05:21:42;101168.00;;;6.10
21336;BMP180;69435;52.670;13.544;2023-12-07T05:24:28;101166.00;;;6.10
21336;BMP180;69435;52.670;13.544;2023-12-07T05:27:16;101173.00;;;6.00
21336;BMP180;69435;52.670;13.544;2023-12-07T05:30:02;101189.00;;;6.10
21336;BMP180;69435;52.670;13.544;2023-12-07T05:32:48;101177.00;;;6.10
21336;BMP180;69435;52.670;13.544;2023-12-07T05:35:34;101121.00;;;6.00
21336;BMP180;69435;52.670;13.544;2023-12-07T05:38:20;101122.00;;;6.00
21336;BMP180;69435;52.670;13.544;2023-12-07T05:41:06;101201.00;;;6.00
21336;BMP180;69435;52.670;13.544;2023-12-07T05:43:53;101123.00;;;6.00
21336;BMP180;69435;52.670;13.544;2023-12-07T05:46:39;101124.00;;;6.00
21336;BMP180;69435;52.670;13.544;2023-12-07T05:49:29;101171.00;;;6.00
21336;BMP180;69435;52.670;13.544;2023-12-07T05:52:15;101155.00;;;6.00
21336;BMP180;69435;52.670;13.544;2023-12-07T05:55:02;101128.00;;;6.00
21336;BMP180;69435;52.670;13.544;2023-12-07T05:57:49;101125.00;;;6.00
21336;BMP180;69435;52.670;13.544;2023-12-07T06:00:35;101183.00;;;6.00
21336;BMP180;69435;52.670;13.544;2023-12-07T06:03:21;101122.00;;;6.00
21336;BMP180;69435;52.670;13.544;2023-12-07T06:06:07;101148.00;;;6.00
21336;BMP180;69435;52.670;13.544;2023-12-07T06:08:53;101135.00;;;6.00
21336;BMP180;69435;52.670;13.544;2023-12-07T06:11:39;101123.00;;;6.10
21336;BMP180;69435;52.670;13.544;2023-12-07T06:14:26;101151.00;;;6.00
21336;BMP180;69435;52.670;13.544;2023-12-07T06:17:12;101140.00;;;6.10
21336;BMP180;69435;52.670;13.544;2023-12-07T06:19:58;101172.00;;;6.10
21336;BMP180;69435;52.670;13.544;2023-12-07T06:22:44;101140.00;;;6.10
21336;BMP180;69435;52.670;13.544;2023-12-07T06:25:30;101213.00;;;6.10
21336;BMP180;69435;52.670;13.544;2023-12-07T06:28:16;101199.00;;;6.10
21336;BMP180;69435;52.670;13.544;2023-12-07T06:31:06;101242.00;;;6.10
21336;BMP180;69435;52.670;13.544;2023-12-07T06:33:53;101219.00;;;6.10
21336;BMP180;69435;52.670;13.544;2023-12-07T06:36:39;101249.00;;;6.10
21336;BMP180;69435;52.670;13.544;2023-12-07T06:39:25;101153.00;;;6.10
21336;BMP180;69435;52.670;13.544;2023-12-07T06:42:11;101215.00;;;6.10
21336;BMP180;69435;52.670;13.544;2023-12-07T06:44:57;101216.00;;;6.10
21336;BMP180;69435;52.670;13.544;2023-12-07T06:47:43;101172.00;;;6.10
21336;BMP180;69435;52.670;13.544;2023-12-07T06:50:31;101236.00;;;6.00
21336;BMP180;69435;52.670;13.544;2023-12-07T06:53:17;101204.00;;;6.10
21336;BMP180;69435;52.670;13.544;2023-12-07T06:56:04;101194.00;;;6.10
21336;BMP180;69435;52.670;13.544;2023-12-07T06:58:50;101204.00;;;6.10
21336;BMP180;69435;52.670;13.544;2023-12-07T07:01:36;101207.00;;;6.10
21336;BMP180;69435;52.670;13.544;2023-12-07T07:04:23;101258.00;;;6.10
21336;BMP180;69435;52.670;13.544;2023-12-07T07:07:09;101213.00;;;6.10
21336;BMP180;69435;52.670;13.544;2023-12-07T07:09:55;101256.00;;;5.90
21336;BMP180;69435;52.670;13.544;2023-12-07T07:12:43;101258.00;;;6.10
21336;BMP180;69435;52.670;13.544;2023-12-07T07:15:30;101265.00;;;6.10
21336;BMP180;69435;52.670;13.544;2023-12-07T07:18:16;101260.00;;;6.10
21336;BMP180;69435;52.670;13.544;2023-12-07T07:21:02;101250.00;;;6.10
21336;BMP180;69435;52.670;13.544;2023-12-07T07:23:50;101192.00;;;6.20
21336;BMP180;69435;52.670;13.544;2023-12-07T07:26:36;101201.00;;;6.20
21336;BMP180;69435;52.670;13.544;2023-12-07T07:29:22;101254.00;;;6.20
21336;BMP180;69435;52.670;13.544;2023-12-07T07:32:08;101202.00;;;6.10
21336;BMP180;69435;52.670;13.544;2023-12-07T07:34:54;101186.00;;;6.10
21336;BMP180;69435;52.670;13.544;2023-12-07T07:37:40;101266.00;;;6.20
21336;BMP180;69435;52.670;13.544;2023-12-07T07:40:27;101202.00;;;6.20
21336;BMP180;69435;52.670;13.544;2023-12-07T07:43:13;101271.00;;;6.20
21336;BMP180;69435;52.670;13.544;2023-12-07T07:45:59;101270.00;;;6.00
21336;BMP180;69435;52.670;13.544;2023-12-07T07:48:45;101269.00;;;6.20
21336;BMP180;69435;52.670;13.544;2023-12-07T07:51:32;101200.00;;;6.20
21336;BMP180;69435;52.670;13.544;2023-12-07T07:54:18;101228.00;;;6.20
21336;BMP180;69435;52.670;13.544;2023-12-07T07:57:04;101165.00;;;6.30
21336;BMP180;69435;52.670;13.544;2023-12-07T07:59:50;101204.00;;;6.30
21336;BMP180;69435;52.670;13.544;2023-12-07T08:02:37;101276.00;;;6.30
21336;BMP180;69435;52.670;13.544;2023-12-07T08:05:23;101192.00;;;6.30
21336;BMP180;69435;52.670;13.544;2023-12-07T08:08:09;101270.00;;;6.30
21336;BMP180;69435;52.670;13.544;2023-12-07T08:10:56;101270.00;;;6.30
21336;BMP180;69435;52.670;13.544;2023-12-07T08:13:42;101269.00;;;6.30
21336;BMP180;69435;52.670;13.544;2023-12-07T08:16:28;101200.00;;;6.40
21336;BMP180;69435;52.670;13.544;2023-12-07T08:19:14;101248.00;;;6.40
21336;BMP180;69435;52.670;13.544;2023-12-07T08:22:00;101197.00;;;6.40
21336;BMP180;69435;52.670;13.544;2023-12-07T08:24:46;101269.00;;;6.40
21336;BMP180;69435;52.670;13.544;2023-12-07T08:27:33;101257.00;;;6.40
21336;BMP180;69435;52.670;13.544;2023-12-07T08:30:20;101235.00;;;6.50
21336;BMP180;69435;52.670;13.544;2023-12-07T08:33:06;101301.00;;;6.50
21336;BMP180;69435;52.670;13.544;2023-12-07T08:35:53;101258.00;;;6.50
21336;BMP180;69435;52.670;13.544;2023-12-07T08:38:41;101245.00;;;6.50
21336;BMP180;69435;52.670;13.544;2023-12-07T08:41:27;101238.00;;;6.50
21336;BMP180;69435;52.670;13.544;2023-12-07T08:44:14;101311.00;;;6.50
21336;BMP180;69435;52.670;13.544;2023-12-07T08:47:00;101234.00;;;6.50
21336;BMP180;69435;52.670;13.544;2023-12-07T08:49:46;101253.00;;;6.50
21336;BMP180;69435;52.670;13.544;2023-12-07T08:52:34;101224.00;;;6.40
21336;BMP180;69435;52.670;13.544;2023-12-07T08:55:21;101285.00;;;6.40
21336;BMP180;69435;52.670;13.544;2023-12-07T08:58:07;101252.00;;;6.50
21336;BMP180;69435;52.670;13.544;2023-12-07T09:00:53;101253.00;;;6.50
21336;BMP180;69435;52.670;13.544;2023-12-07T09:03:39;101274.00;;;6.40
21336;BMP180;69435;52.670;13.544;2023-12-07T09:06:27;101270.00;;;6.40
21336;BMP180;69435;52.670;13.544;2023-12-07T09:09:13;101291.00;;;6.50
21336;BMP180;69435;52.670;13.544;2023-12-07T09:11:59;101252.00;;;6.50
21336;BMP180;69435;52.670;13.544;2023-12-07T09:14:45;101293.00;;;6.50
21336;BMP180;69435;52.670;13.544;2023-12-07T09:17:31;101268.00;;;6.50
21336;BMP180;69435;52.670;13.544;2023-12-07T09:20:17;101328.00;;;6.50
21336;BMP180;69435;52.670;13.544;2023-12-07T09:23:04;101308.00;;;6.60
21336;BMP180;69435;52.670;13.544;2023-12-07T09:25:50;101253.00;;;6.60
21336;BMP180;69435;52.670;13.544;2023-12-07T09:28:36;101286.00;;;6.60
21336;BMP180;69435;52.670;13.544;2023-12-07T09:31:22;101285.00;;;6.60
21336;BMP180;69435;52.670;13.544;2023-12-07T09:34:08;101242.00;;;6.70
21336;BMP180;69435;52.670;13.544;2023-12-07T09:37:10;101234.00;;;6.70
21336;BMP180;69435;52.670;13.544;2023-12-07T09:39:57;101247.00;;;6.70
21336;BMP180;69435;52.670;13.544;2023-12-07T09:42:44;101248.00;;;6.70
21336;BMP180;69435;52.670;13.544;2023-12-07T09:45:30;101235.00;;;6.80
21336;BMP180;69435;52.670;13.544;2023-12-07T09:48:17;101275.00;;;6.80
21336;BMP180;69435;52.670;13.544;2023-12-07T09:51:04;101273.00;;;6.70
21336;BMP180;69435;52.670;13.544;2023-12-07T09:53:53;101328.00;;;6.80
21336;BMP180;69435;52.670;13.544;2023-12-07T09:56:40;101301.00;;;6.70
21336;BMP180;69435;52.670;13.544;2023-12-07T09:59:26;101302.00;;;6.70
21336;BMP180;69435;52.670;13.544;2023-12-07T10:02:13;101313.00;;;6.70
21336;BMP180;69435;52.670;13.544;2023-12-07T10:05:07;101271.00;;;6.70
21336;BMP180;69435;52.670;13.544;2023-12-07T10:07:54;101303.00;;;6.80
21336;BMP180;69435;52.670;13.544;2023-12-07T10:10:40;101337.00;;;6.70
21336;BMP180;69435;52.670;13.544;2023-12-07T10:13:30;101342.00;;;6.70
21336;BMP180;69435;52.670;13.544;2023-12-07T10:16:16;101288.00;;;6.70
21336;BMP180;69435;52.670;13.544;2023-12-07T10:19:14;101341.00;;;6.80
21336;BMP180;69435;52.670;13.544;2023-12-07T10:22:14;101296.00;;;6.80
21336;BMP180;69435;52.670;13.544;2023-12-07T10:25:01;101226.00;;;6.80
21336;BMP180;69435;52.670;13.544;2023-12-07T10:27:47;101273.00;;;6.80
21336;BMP180;69435;52.670;13.544;2023-12-07T10:30:34;101298.00;;;6.90
21336;BMP180;69435;52.670;13.544;2023-12-07T10:33:21;101301.00;;;6.90
21336;BMP180;69435;52.670;13.544;2023-12-07T10:36:08;101217.00;;;6.90
21336;BMP180;69435;52.670;13.544;2023-12-07T10:38:55;101273.00;;;7.00
21336;BMP180;69435;52.670;13.544;2023-12-07T10:41:44;101302.00;;;7.10
21336;BMP180;69435;52.670;13.544;2023-12-07T10:44:36;101303.00;;;7.10
21336;BMP180;69435;52.670;13.544;2023-12-07T10:47:28;101230.00;;;7.10
21336;BMP180;69435;52.670;13.544;2023-12-07T10:50:23;101321.00;;;7.10
21336;BMP180;69435;52.670;13.544;2023-12-07T10:53:27;101332.00;;;7.20
21336;BMP180;69435;52.670;13.544;2023-12-07T10:56:28;101302.00;;;7.00
21336;BMP180;69435;52.670;13.544;2023-12-07T10:59:17;101284.00;;;7.20
21336;BMP180;69435;52.670;13.544;2023-12-07T11:02:06;101271.00;;;7.10
21336;BMP180;69435;52.670;13.544;2023-12-07T11:04:57;101327.00;;;7.10
21336;BMP180;69435;52.670;13.544;2023-12-07T11:11:06;101297.00;;;7.00
21336;BMP180;69435;52.670;13.544;2023-12-07T11:14:08;101309.00;;;7.00
21336;BMP180;69435;52.670;13.544;2023-12-07T11:16:57;101279.00;;;7.00
21336;BMP180;69435;52.670;13.544;2023-12-07T11:19:46;101286.00;;;7.00
21336;BMP180;69435;52.670;13.544;2023-12-07T11:22:33;101261.00;;;7.00
21336;BMP180;69435;52.670;13.544;2023-12-07T11:25:20;101283.00;;;6.90
21336;BMP180;69435;52.670;13.544;2023-12-07T11:28:07;101306.00;;;7.10
21336;BMP180;69435;52.670;13.544;2023-12-07T11:30:54;101227.00;;;7.20
21336;BMP180;69435;52.670;13.544;2023-12-07T11:33:41;101287.00;;;7.30
21336;BMP180;69435;52.670;13.544;2023-12-07T11:36:28;101270.00;;;7.30
21336;BMP180;69435;52.670;13.544;2023-12-07T11:42:11;101284.00;;;7.50
21336;BMP180;69435;52.670;13.544;2023-12-07T11:44:57;101269.00;;;7.50
21336;BMP180;69435;52.670;13.544;2023-12-07T11:47:43;101286.00;;;7.60
21336;BMP180;69435;52.670;13.544;2023-12-07T11:50:34;101229.00;;;7.60
21336;BMP180;69435;52.670;13.544;2023-12-07T11:53:24;101290.00;;;7.60
21336;BMP180;69435;52.670;13.544;2023-12-07T11:56:11;101244.00;;;7.60
21336;BMP180;69435;52.670;13.544;2023-12-07T11:58:59;101240.00;;;7.60
21336;BMP180;69435;52.670;13.544;2023-12-07T12:01:48;101260.00;;;7.50
21336;BMP180;69435;52.670;13.544;2023-12-07T12:04:35;101236.00;;;7.40
21336;BMP180;69435;52.670;13.544;2023-12-07T12:07:24;101300.00;;;7.20
21336;BMP180;69435;52.670;13.544;2023-12-07T12:10:11;101285.00;;;7.20
21336;BMP180;69435;52.670;13.544;2023-12-07T12:13:02;101226.00;;;7.20
21336;BMP180;69435;52.670;13.544;2023-12-07T12:15:51;101279.00;;;7.10
21336;BMP180;69435;52.670;13.544;2023-12-07T12:18:37;101315.00;;;7.10
21336;BMP180;69435;52.670;13.544;2023-12-07T12:21:24;101254.00;;;7.10
21336;BMP180;69435;52.670;13.544;2023-12-07T12:24:11;101207.00;;;7.10
21336;BMP180;69435;52.670;13.544;2023-12-07T12:26:58;101297.00;;;7.10
21336;BMP180;69435;52.670;13.544;2023-12-07T12:29:44;101225.00;;;7.10
21336;BMP180;69435;52.670;13.544;2023-12-07T12:32:47;101262.00;;;7.10
21336;BMP180;69435;52.670;13.544;2023-12-07T12:35:33;101280.00;;;7.00
21336;BMP180;69435;52.670;13.544;2023-12-07T12:38:19;101216.00;;;7.10
21336;BMP180;69435;52.670;13.544;2023-12-07T12:41:05;101221.00;;;7.00
21336;BMP180;69435;52.670;13.544;2023-12-07T12:43:52;101301.00;;;7.00
21336;BMP180;69435;52.670;13.544;2023-12-07T12:46:38;101239.00;;;7.00
21336;BMP180;69435;52.670;13.544;2023-12-07T12:49:35;101259.00;;;7.00
21336;BMP180;69435;52.670;13.544;2023-12-07T12:52:24;101247.00;;;7.00
21336;BMP180;69435;52.670;13.544;2023-12-07T12:55:11;101231.00;;;7.00
21336;BMP180;69435;52.670;13.544;2023-12-07T12:57:58;101291.00;;;7.00
21336;BMP180;69435;52.670;13.544;2023-12-07T13:00:44;101238.00;;;7.10
21336;BMP180;69435;52.670;13.544;2023-12-07T13:03:30;101266.00;;;7.10
21336;BMP180;69435;52.670;13.544;2023-12-07T13:06:17;101229.00;;;7.00
21336;BMP180;69435;52.670;13.544;2023-12-07T13:09:03;101207.00;;;7.10
21336;BMP180;69435;52.670;13.544;2023-12-07T13:11:50;101282.00;;;7.00
21336;BMP180;69435;52.670;13.544;2023-12-07T13:14:36;101235.00;;;7.00
21336;BMP180;69435;52.670;13.544;2023-12-07T13:17:24;101285.00;;;7.00
21336;BMP180;69435;52.670;13.544;2023-12-07T13:20:11;101237.00;;;6.90
21336;BMP180;69435;52.670;13.544;2023-12-07T13:22:59;101283.00;;;6.90
21336;BMP180;69435;52.670;13.544;2023-12-07T13:25:45;101294.00;;;6.90
21336;BMP180;69435;52.670;13.544;2023-12-07T13:28:31;101221.00;;;6.90
21336;BMP180;69435;52.670;13.544;2023-12-07T13:31:18;101257.00;;;7.00
21336;BMP180;69435;52.670;13.544;2023-12-07T13:34:05;101288.00;;;6.90
21336;BMP180;69435;52.670;13.544;2023-12-07T13:36:52;101282.00;;;6.90
21336;BMP180;69435;52.670;13.544;2023-12-07T13:39:38;101290.00;;;6.90
21336;BMP180;69435;52.670;13.544;2023-12-07T13:42:26;101268.00;;;6.90
21336;BMP180;69435;52.670;13.544;2023-12-07T13:45:13;101309.00;;;6.90
21336;BMP180;69435;52.670;13.544;2023-12-07T13:48:01;101236.00;;;6.90
21336;BMP180;69435;52.670;13.544;2023-12-07T13:50:47;101304.00;;;6.80
21336;BMP180;69435;52.670;13.544;2023-12-07T13:53:33;101261.00;;;6.90
21336;BMP180;69435;52.670;13.544;2023-12-07T13:56:19;101216.00;;;6.90
21336;BMP180;69435;52.670;13.544;2023-12-07T13:59:06;101297.00;;;6.90
21336;BMP180;69435;52.670;13.544;2023-12-07T14:01:56;101272.00;;;6.90
21336;BMP180;69435;52.670;13.544;2023-12-07T14:04:42;101319.00;;;6.90
21336;BMP180;69435;52.670;13.544;2023-12-07T14:07:28;101289.00;;;6.90
21336;BMP180;69435;52.670;13.544;2023-12-07T14:10:14;101309.00;;;6.90
21336;BMP180;69435;52.670;13.544;2023-12-07T14:13:01;101286.00;;;6.90
21336;BMP180;69435;52.670;13.544;2023-12-07T14:15:47;101254.00;;;6.90
21336;BMP180;69435;52.670;13.544;2023-12-07T14:18:34;101262.00;;;6.90
21336;BMP180;69435;52.670;13.544;2023-12-07T14:21:20;101220.00;;;6.90
21336;BMP180;69435;52.670;13.544;2023-12-07T14:24:08;101322.00;;;6.80
21336;BMP180;69435;52.670;13.544;2023-12-07T14:26:57;101319.00;;;6.80
21336;BMP180;69435;52.670;13.544;2023-12-07T14:29:43;101319.00;;;6.80
21336;BMP180;69435;52.670;13.544;2023-12-07T14:32:29;101289.00;;;6.80
21336;BMP180;69435;52.670;13.544;2023-12-07T14:35:15;101318.00;;;6.90
21336;BMP180;69435;52.670;13.544;2023-12-07T14:38:01;101238.00;;;6.90
21336;BMP180;69435;52.670;13.544;2023-12-07T14:40:50;101253.00;;;6.70
21336;BMP180;69435;52.670;13.544;2023-12-07T14:43:36;101248.00;;;6.90
21336;BMP180;69435;52.670;13.544;2023-12-07T14:46:22;101296.00;;;6.90
21336;BMP180;69435;52.670;13.544;2023-12-07T14:49:09;101312.00;;;6.90
21336;BMP180;69435;52.670;13.544;2023-12-07T14:51:56;101247.00;;;6.90
21336;BMP180;69435;52.670;13.544;2023-12-07T14:54:44;101254.00;;;7.00
21336;BMP180;69435;52.670;13.544;2023-12-07T14:57:31;101294.00;;;6.90
21336;BMP180;69435;52.670;13.544;2023-12-07T15:00:20;101242.00;;;7.00
21336;BMP180;69435;52.670;13.544;2023-12-07T15:03:07;101274.00;;;6.90
21336;BMP180;69435;52.670;13.544;2023-12-07T15:05:53;101267.00;;;6.90
21336;BMP180;69435;52.670;13.544;2023-12-07T15:08:39;101280.00;;;7.00
21336;BMP180;69435;52.670;13.544;2023-12-07T15:11:25;101265.00;;;6.90
21336;BMP180;69435;52.670;13.544;2023-12-07T15:14:12;101321.00;;;6.90
21336;BMP180;69435;52.670;13.544;2023-12-07T15:16:58;101332.00;;;7.00
21336;BMP180;69435;52.670;13.544;2023-12-07T15:19:45;101270.00;;;6.90
21336;BMP180;69435;52.670;13.544;2023-12-07T15:22:31;101281.00;;;6.90
21336;BMP180;69435;52.670;13.544;2023-12-07T15:25:17;101307.00;;;6.90
21336;BMP180;69435;52.670;13.544;2023-12-07T15:28:03;101312.00;;;6.90
21336;BMP180;69435;52.670;13.544;2023-12-07T15:30:49;101259.00;;;6.90
21336;BMP180;69435;52.670;13.544;2023-12-07T15:33:36;101242.00;;;6.90
21336;BMP180;69435;52.670;13.544;2023-12-07T15:36:22;101245.00;;;7.00
21336;BMP180;69435;52.670;13.544;2023-12-07T15:39:08;101267.00;;;6.60
21336;BMP180;69435;52.670;13.544;2023-12-07T15:41:57;101250.00;;;6.90
21336;BMP180;69435;52.670;13.544;2023-12-07T15:44:45;101230.00;;;6.90
21336;BMP180;69435;52.670;13.544;2023-12-07T15:47:31;101214.00;;;6.70
21336;BMP180;69435;52.670;13.544;2023-12-07T15:50:17;101282.00;;;6.90
21336;BMP180;69435;52.670;13.544;2023-12-07T15:53:03;101285.00;;;6.90
21336;BMP180;69435;52.670;13.544;2023-12-07T15:55:49;101247.00;;;6.90
21336;BMP180;69435;52.670;13.544;2023-12-07T15:58:35;101267.00;;;6.90